sensor_id;sensor_type;location;lat;lon;timestamp;pressure;altitude;pressure_sealevel;temperature;humidity
21096;BME280;10706;49.036;12.112;2023-07-29T00:02:01;97310.19;;;17.75;100.00
21096;BME280;10706;49.036;12.112;2023-07-29T00:04:26;97312.09;;;17.75;100.00
21096;BME280;10706;49.036;12.112;2023-07-29T00:06:52;97312.31;;;17.78;100.00
21096;BME280;10706;49.036;12.112;2023-07-29T00:09:18;97318.91;;;17.72;100.00
21096;BME280;10706;49.036;12.112;2023-07-29T00:11:44;97316.09;;;17.77;100.00
21096;BME280;10706;49.036;12.112;2023-07-29T00:14:09;97317.50;;;17.75;100.00
21096;BME280;10706;49.036;12.112;2023-07-29T00:16:35;97324.88;;;17.69;100.00
21096;BME280;10706;49.036;12.112;2023-07-29T00:19:02;97329.91;;;17.76;100.00
21096;BME280;10706;49.036;12.112;2023-07-29T00:21:28;97327.50;;;17.74;100.00
21096;BME280;10706;49.036;12.112;2023-07-29T00:23:54;97328.31;;;17.75;100.00
21096;BME280;10706;49.036;12.112;2023-07-29T00:26:23;97327.94;;;17.81;100.00
21096;BME280;10706;49.036;12.112;2023-07-29T00:28:51;97330.66;;;17.81;100.00
21096;BME280;10706;49.036;12.112;2023-07-29T00:31:17;97338.03;;;17.76;100.00
21096;BME280;10706;49.036;12.112;2023-07-29T00:33:43;97337.41;;;17.60;100.00
21096;BME280;10706;49.036;12.112;2023-07-29T00:36:08;97341.50;;;17.76;100.00
21096;BME280;10706;49.036;12.112;2023-07-29T00:38:34;97332.28;;;17.58;100.00
21096;BME280;10706;49.036;12.112;2023-07-29T00:41:02;97324.28;;;17.53;100.00
21096;BME280;10706;49.036;12.112;2023-07-29T00:43:29;97321.41;;;17.44;100.00
21096;BME280;10706;49.036;12.112;2023-07-29T00:45:54;97318.00;;;17.58;100.00
21096;BME280;10706;49.036;12.112;2023-07-29T00:48:23;97311.66;;;17.67;100.00
21096;BME280;10706;49.036;12.112;2023-07-29T00:50:50;97316.72;;;17.74;100.00
21096;BME280;10706;49.036;12.112;2023-07-29T00:53:16;97321.50;;;17.58;100.00
21096;BME280;10706;49.036;12.112;2023-07-29T00:55:42;97320.13;;;17.61;100.00
21096;BME280;10706;49.036;12.112;2023-07-29T00:58:08;97312.16;;;17.69;100.00
21096;BME280;10706;49.036;12.112;2023-07-29T01:00:34;97312.81;;;17.61;100.00
21096;BME280;10706;49.036;12.112;2023-07-29T01:03:00;97322.09;;;17.55;100.00
21096;BME280;10706;49.036;12.112;2023-07-29T01:05:36;97320.13;;;17.42;100.00
21096;BME280;10706;49.036;12.112;2023-07-29T01:08:36;97323.00;;;17.45;100.00
21096;BME280;10706;49.036;12.112;2023-07-29T01:11:29;97316.75;;;17.31;100.00
21096;BME280;10706;49.036;12.112;2023-07-29T01:17:03;97316.59;;;17.41;100.00
21096;BME280;10706;49.036;12.112;2023-07-29T01:20:07;97309.38;;;17.37;100.00
21096;BME280;10706;49.036;12.112;2023-07-29T01:22:35;97305.78;;;17.41;100.00
21096;BME280;10706;49.036;12.112;2023-07-29T01:25:02;97298.38;;;17.52;100.00
21096;BME280;10706;49.036;12.112;2023-07-29T01:27:29;97303.47;;;17.35;100.00
21096;BME280;10706;49.036;12.112;2023-07-29T01:29:57;97315.56;;;17.37;100.00
21096;BME280;10706;49.036;12.112;2023-07-29T01:33:04;97319.44;;;17.31;100.00
21096;BME280;10706;49.036;12.112;2023-07-29T01:35:36;97318.41;;;17.27;100.00
21096;BME280;10706;49.036;12.112;2023-07-29T01:38:19;97318.50;;;17.41;100.00
21096;BME280;10706;49.036;12.112;2023-07-29T01:40:48;97315.47;;;17.47;100.00
21096;BME280;10706;49.036;12.112;2023-07-29T01:43:16;97302.47;;;17.49;100.00
21096;BME280;10706;49.036;12.112;2023-07-29T01:45:44;97289.47;;;17.52;100.00
21096;BME280;10706;49.036;12.112;2023-07-29T01:48:10;97288.38;;;17.53;100.00
21096;BME280;10706;49.036;12.112;2023-07-29T01:50:35;97286.78;;;17.52;100.00
21096;BME280;10706;49.036;12.112;2023-07-29T01:53:01;97289.38;;;17.57;100.00
21096;BME280;10706;49.036;12.112;2023-07-29T01:55:27;97289.31;;;17.62;100.00
21096;BME280;10706;49.036;12.112;2023-07-29T01:57:53;97302.38;;;17.55;100.00
21096;BME280;10706;49.036;12.112;2023-07-29T02:00:19;97296.56;;;17.47;100.00
21096;BME280;10706;49.036;12.112;2023-07-29T02:02:45;97306.31;;;17.43;100.00
21096;BME280;10706;49.036;12.112;2023-07-29T02:05:11;97307.47;;;17.37;100.00
21096;BME280;10706;49.036;12.112;2023-07-29T02:07:37;97309.88;;;17.39;100.00
21096;BME280;10706;49.036;12.112;2023-07-29T02:10:03;97310.19;;;17.37;100.00
21096;BME280;10706;49.036;12.112;2023-07-29T02:12:28;97309.00;;;17.43;100.00
21096;BME280;10706;49.036;12.112;2023-07-29T02:14:54;97306.75;;;17.51;100.00
21096;BME280;10706;49.036;12.112;2023-07-29T02:17:20;97310.25;;;17.51;100.00
21096;BME280;10706;49.036;12.112;2023-07-29T02:19:46;97301.41;;;17.45;100.00
21096;BME280;10706;49.036;12.112;2023-07-29T02:22:17;97303.69;;;17.38;100.00
21096;BME280;10706;49.036;12.112;2023-07-29T02:24:43;97302.97;;;17.33;100.00
21096;BME280;10706;49.036;12.112;2023-07-29T02:27:09;97311.13;;;17.46;100.00
21096;BME280;10706;49.036;12.112;2023-07-29T02:29:35;97298.66;;;17.51;100.00
21096;BME280;10706;49.036;12.112;2023-07-29T02:32:01;97299.16;;;17.53;100.00
21096;BME280;10706;49.036;12.112;2023-07-29T02:34:27;97301.63;;;17.30;100.00
21096;BME280;10706;49.036;12.112;2023-07-29T02:36:53;97310.22;;;17.32;100.00
21096;BME280;10706;49.036;12.112;2023-07-29T02:39:18;97310.69;;;17.39;100.00
21096;BME280;10706;49.036;12.112;2023-07-29T02:41:44;97314.19;;;17.40;100.00
21096;BME280;10706;49.036;12.112;2023-07-29T02:44:10;97318.16;;;17.47;100.00
21096;BME280;10706;49.036;12.112;2023-07-29T02:46:36;97321.75;;;17.38;100.00
21096;BME280;10706;49.036;12.112;2023-07-29T02:49:02;97314.72;;;17.42;100.00
21096;BME280;10706;49.036;12.112;2023-07-29T02:51:29;97311.34;;;17.31;100.00
21096;BME280;10706;49.036;12.112;2023-07-29T02:53:55;97302.56;;;17.20;100.00
21096;BME280;10706;49.036;12.112;2023-07-29T02:56:21;97307.09;;;17.25;100.00
21096;BME280;10706;49.036;12.112;2023-07-29T02:58:47;97303.25;;;17.31;100.00
21096;BME280;10706;49.036;12.112;2023-07-29T03:01:13;97301.91;;;17.28;100.00
21096;BME280;10706;49.036;12.112;2023-07-29T03:03:39;97294.75;;;17.19;100.00
21096;BME280;10706;49.036;12.112;2023-07-29T03:06:08;97295.34;;;17.16;100.00
21096;BME280;10706;49.036;12.112;2023-07-29T03:08:35;97304.53;;;17.15;100.00
21096;BME280;10706;49.036;12.112;2023-07-29T03:11:11;97289.72;;;17.12;100.00
21096;BME280;10706;49.036;12.112;2023-07-29T03:13:38;97284.91;;;17.09;100.00
21096;BME280;10706;49.036;12.112;2023-07-29T03:16:17;97285.22;;;17.02;100.00
21096;BME280;10706;49.036;12.112;2023-07-29T03:18:44;97287.72;;;16.99;100.00
21096;BME280;10706;49.036;12.112;2023-07-29T03:21:11;97287.53;;;16.90;100.00
21096;BME280;10706;49.036;12.112;2023-07-29T03:23:37;97295.91;;;16.88;100.00
21096;BME280;10706;49.036;12.112;2023-07-29T03:26:04;97289.72;;;16.88;100.00
21096;BME280;10706;49.036;12.112;2023-07-29T03:28:41;97292.72;;;16.86;100.00
21096;BME280;10706;49.036;12.112;2023-07-29T03:31:07;97293.78;;;16.85;100.00
21096;BME280;10706;49.036;12.112;2023-07-29T03:33:33;97278.19;;;16.82;100.00
21096;BME280;10706;49.036;12.112;2023-07-29T03:36:00;97283.59;;;16.77;100.00
21096;BME280;10706;49.036;12.112;2023-07-29T03:38:25;97282.31;;;16.75;100.00
21096;BME280;10706;49.036;12.112;2023-07-29T03:40:51;97292.81;;;16.76;100.00
21096;BME280;10706;49.036;12.112;2023-07-29T03:43:17;97291.97;;;16.76;100.00
21096;BME280;10706;49.036;12.112;2023-07-29T03:45:52;97295.25;;;16.73;100.00
21096;BME280;10706;49.036;12.112;2023-07-29T03:48:17;97287.47;;;16.71;100.00
21096;BME280;10706;49.036;12.112;2023-07-29T03:50:43;97290.38;;;16.75;100.00
21096;BME280;10706;49.036;12.112;2023-07-29T03:53:09;97296.06;;;16.73;100.00
21096;BME280;10706;49.036;12.112;2023-07-29T03:55:35;97291.22;;;16.70;100.00
21096;BME280;10706;49.036;12.112;2023-07-29T03:58:01;97293.38;;;16.73;100.00
21096;BME280;10706;49.036;12.112;2023-07-29T04:00:27;97284.47;;;16.73;100.00
21096;BME280;10706;49.036;12.112;2023-07-29T04:02:53;97294.38;;;16.77;100.00
21096;BME280;10706;49.036;12.112;2023-07-29T04:05:19;97298.47;;;16.75;100.00
21096;BME280;10706;49.036;12.112;2023-07-29T04:07:45;97290.66;;;16.73;100.00
21096;BME280;10706;49.036;12.112;2023-07-29T04:10:10;97284.75;;;16.71;100.00
21096;BME280;10706;49.036;12.112;2023-07-29T04:12:36;97287.19;;;16.73;100.00
21096;BME280;10706;49.036;12.112;2023-07-29T04:15:02;97281.78;;;16.73;100.00
21096;BME280;10706;49.036;12.112;2023-07-29T04:17:28;97290.09;;;16.76;100.00
21096;BME280;10706;49.036;12.112;2023-07-29T04:19:54;97296.81;;;16.79;100.00
21096;BME280;10706;49.036;12.112;2023-07-29T04:22:20;97299.78;;;16.82;100.00
21096;BME280;10706;49.036;12.112;2023-07-29T04:24:46;97300.47;;;16.64;100.00
21096;BME280;10706;49.036;12.112;2023-07-29T04:29:31;97295.59;;;16.95;100.00
21096;BME280;10706;49.036;12.112;2023-07-29T04:31:57;97291.09;;;17.09;100.00
21096;BME280;10706;49.036;12.112;2023-07-29T04:34:22;97294.94;;;17.03;100.00
21096;BME280;10706;49.036;12.112;2023-07-29T04:36:48;97298.91;;;16.87;100.00
21096;BME280;10706;49.036;12.112;2023-07-29T04:39:14;97296.03;;;17.02;100.00
21096;BME280;10706;49.036;12.112;2023-07-29T04:41:40;97288.78;;;17.22;100.00
21096;BME280;10706;49.036;12.112;2023-07-29T04:44:06;97289.81;;;17.26;100.00
21096;BME280;10706;49.036;12.112;2023-07-29T04:46:32;97295.09;;;17.36;100.00
21096;BME280;10706;49.036;12.112;2023-07-29T04:48:58;97293.72;;;17.58;100.00
21096;BME280;10706;49.036;12.112;2023-07-29T04:51:24;97296.84;;;17.65;100.00
21096;BME280;10706;49.036;12.112;2023-07-29T04:53:50;97292.97;;;17.52;100.00
21096;BME280;10706;49.036;12.112;2023-07-29T04:56:16;97296.41;;;17.58;100.00
21096;BME280;10706;49.036;12.112;2023-07-29T04:58:42;97297.28;;;17.72;100.00
21096;BME280;10706;49.036;12.112;2023-07-29T05:01:08;97300.81;;;17.92;100.00
21096;BME280;10706;49.036;12.112;2023-07-29T05:03:33;97300.22;;;17.95;100.00
21096;BME280;10706;49.036;12.112;2023-07-29T05:05:59;97295.13;;;17.93;100.00
21096;BME280;10706;49.036;12.112;2023-07-29T05:08:28;97285.28;;;18.16;100.00
21096;BME280;10706;49.036;12.112;2023-07-29T05:10:54;97280.53;;;18.41;100.00
21096;BME280;10706;49.036;12.112;2023-07-29T05:13:22;97288.50;;;18.51;99.85
21096;BME280;10706;49.036;12.112;2023-07-29T05:15:48;97283.59;;;18.67;99.37
21096;BME280;10706;49.036;12.112;2023-07-29T05:18:15;97281.72;;;18.68;99.43
21096;BME280;10706;49.036;12.112;2023-07-29T05:20:41;97282.47;;;18.54;98.71
21096;BME280;10706;49.036;12.112;2023-07-29T05:23:07;97276.25;;;18.54;98.70
21096;BME280;10706;49.036;12.112;2023-07-29T05:25:33;97272.34;;;18.46;98.50
21096;BME280;10706;49.036;12.112;2023-07-29T05:28:01;97278.75;;;18.83;97.54
21096;BME280;10706;49.036;12.112;2023-07-29T05:30:28;97288.34;;;19.03;97.29
21096;BME280;10706;49.036;12.112;2023-07-29T05:32:57;97275.81;;;19.21;95.25
21096;BME280;10706;49.036;12.112;2023-07-29T05:35:23;97280.91;;;19.09;95.44
21096;BME280;10706;49.036;12.112;2023-07-29T05:37:49;97277.03;;;19.15;94.72
21096;BME280;10706;49.036;12.112;2023-07-29T05:40:15;97272.06;;;19.45;94.47
21096;BME280;10706;49.036;12.112;2023-07-29T05:42:41;97266.13;;;19.56;94.43
21096;BME280;10706;49.036;12.112;2023-07-29T05:45:07;97270.31;;;19.76;93.74
21096;BME280;10706;49.036;12.112;2023-07-29T05:47:33;97265.63;;;19.91;92.29
21096;BME280;10706;49.036;12.112;2023-07-29T05:49:59;97266.97;;;19.79;92.63
21096;BME280;10706;49.036;12.112;2023-07-29T05:52:28;97265.41;;;20.32;91.84
21096;BME280;10706;49.036;12.112;2023-07-29T05:54:53;97266.25;;;20.64;88.60
21096;BME280;10706;49.036;12.112;2023-07-29T05:57:19;97254.28;;;20.65;87.29
21096;BME280;10706;49.036;12.112;2023-07-29T05:59:45;97260.41;;;20.80;85.82
21096;BME280;10706;49.036;12.112;2023-07-29T06:02:10;97262.63;;;20.77;86.37
21096;BME280;10706;49.036;12.112;2023-07-29T06:04:36;97261.97;;;20.72;86.10
21096;BME280;10706;49.036;12.112;2023-07-29T06:07:02;97270.84;;;20.32;85.48
21096;BME280;10706;49.036;12.112;2023-07-29T06:09:28;97271.16;;;20.08;87.67
21096;BME280;10706;49.036;12.112;2023-07-29T06:11:54;97273.31;;;20.20;88.63
21096;BME280;10706;49.036;12.112;2023-07-29T06:14:19;97275.41;;;20.00;87.23
21096;BME280;10706;49.036;12.112;2023-07-29T06:16:45;97273.81;;;20.22;88.32
21096;BME280;10706;49.036;12.112;2023-07-29T06:19:11;97266.56;;;20.09;88.01
21096;BME280;10706;49.036;12.112;2023-07-29T06:21:36;97268.28;;;20.27;88.81
21096;BME280;10706;49.036;12.112;2023-07-29T06:24:02;97263.81;;;20.31;88.57
21096;BME280;10706;49.036;12.112;2023-07-29T06:26:28;97259.81;;;20.29;86.67
21096;BME280;10706;49.036;12.112;2023-07-29T06:28:54;97257.47;;;20.13;87.66
21096;BME280;10706;49.036;12.112;2023-07-29T06:31:20;97265.50;;;19.59;88.40
21096;BME280;10706;49.036;12.112;2023-07-29T06:33:46;97274.66;;;19.50;89.92
21096;BME280;10706;49.036;12.112;2023-07-29T06:36:12;97276.41;;;19.68;89.97
21096;BME280;10706;49.036;12.112;2023-07-29T06:38:37;97278.63;;;19.66;90.77
21096;BME280;10706;49.036;12.112;2023-07-29T06:41:04;97266.56;;;20.40;88.46
21096;BME280;10706;49.036;12.112;2023-07-29T06:43:30;97275.13;;;20.87;86.53
21096;BME280;10706;49.036;12.112;2023-07-29T06:45:56;97270.78;;;20.55;84.89
21096;BME280;10706;49.036;12.112;2023-07-29T06:48:22;97268.09;;;20.55;85.44
21096;BME280;10706;49.036;12.112;2023-07-29T06:50:49;97277.59;;;20.12;86.20
21096;BME280;10706;49.036;12.112;2023-07-29T06:53:16;97278.31;;;20.04;87.14
21096;BME280;10706;49.036;12.112;2023-07-29T06:55:43;97279.72;;;20.02;87.27
21096;BME280;10706;49.036;12.112;2023-07-29T06:58:09;97282.84;;;20.40;87.62
21096;BME280;10706;49.036;12.112;2023-07-29T07:00:35;97279.38;;;20.71;85.30
21096;BME280;10706;49.036;12.112;2023-07-29T07:03:01;97285.75;;;20.21;86.84
21096;BME280;10706;49.036;12.112;2023-07-29T07:05:27;97291.13;;;20.35;86.00
21096;BME280;10706;49.036;12.112;2023-07-29T07:07:53;97291.47;;;20.65;86.08
21096;BME280;10706;49.036;12.112;2023-07-29T07:10:19;97296.00;;;20.78;85.12
21096;BME280;10706;49.036;12.112;2023-07-29T07:12:44;97296.97;;;20.82;84.61
21096;BME280;10706;49.036;12.112;2023-07-29T07:15:10;97293.94;;;19.85;87.86
21096;BME280;10706;49.036;12.112;2023-07-29T07:17:36;97295.19;;;19.78;89.39
21096;BME280;10706;49.036;12.112;2023-07-29T07:20:02;97290.13;;;20.08;90.07
21096;BME280;10706;49.036;12.112;2023-07-29T07:22:27;97284.09;;;20.34;88.45
21096;BME280;10706;49.036;12.112;2023-07-29T07:24:54;97277.03;;;20.02;88.21
21096;BME280;10706;49.036;12.112;2023-07-29T07:27:19;97277.50;;;20.26;89.54
21096;BME280;10706;49.036;12.112;2023-07-29T07:29:45;97265.03;;;20.25;90.33
21096;BME280;10706;49.036;12.112;2023-07-29T07:32:11;97263.66;;;20.05;91.21
21096;BME280;10706;49.036;12.112;2023-07-29T07:34:36;97260.84;;;20.10;92.17
21096;BME280;10706;49.036;12.112;2023-07-29T07:37:02;97255.41;;;19.88;93.17
21096;BME280;10706;49.036;12.112;2023-07-29T07:39:30;97249.25;;;19.96;94.99
21096;BME280;10706;49.036;12.112;2023-07-29T07:41:56;97256.88;;;20.16;93.67
21096;BME280;10706;49.036;12.112;2023-07-29T07:44:22;97265.09;;;20.34;94.41
21096;BME280;10706;49.036;12.112;2023-07-29T07:46:48;97259.28;;;20.49;93.69
21096;BME280;10706;49.036;12.112;2023-07-29T07:49:14;97267.28;;;20.54;92.56
21096;BME280;10706;49.036;12.112;2023-07-29T07:51:40;97273.09;;;20.62;91.60
21096;BME280;10706;49.036;12.112;2023-07-29T07:54:05;97270.03;;;20.94;91.71
21096;BME280;10706;49.036;12.112;2023-07-29T07:56:31;97275.97;;;21.05;90.25
21096;BME280;10706;49.036;12.112;2023-07-29T07:58:57;97276.00;;;21.14;88.84
21096;BME280;10706;49.036;12.112;2023-07-29T08:01:23;97287.06;;;21.26;89.13
21096;BME280;10706;49.036;12.112;2023-07-29T08:03:48;97294.09;;;21.27;87.72
21096;BME280;10706;49.036;12.112;2023-07-29T08:06:14;97293.25;;;21.76;86.42
21096;BME280;10706;49.036;12.112;2023-07-29T08:08:40;97295.78;;;21.89;86.46
21096;BME280;10706;49.036;12.112;2023-07-29T08:11:06;97307.59;;;21.50;86.39
21096;BME280;10706;49.036;12.112;2023-07-29T08:13:31;97321.03;;;21.55;87.53
21096;BME280;10706;49.036;12.112;2023-07-29T08:15:57;97341.97;;;21.14;88.06
21096;BME280;10706;49.036;12.112;2023-07-29T08:18:23;97381.00;;;20.65;90.67
21096;BME280;10706;49.036;12.112;2023-07-29T08:20:57;97416.84;;;20.03;96.00
21096;BME280;10706;49.036;12.112;2023-07-29T08:23:31;97422.00;;;18.88;100.00
21096;BME280;10706;49.036;12.112;2023-07-29T08:26:00;97387.41;;;18.52;100.00
21096;BME280;10706;49.036;12.112;2023-07-29T08:28:29;97362.91;;;18.30;100.00
21096;BME280;10706;49.036;12.112;2023-07-29T08:30:55;97347.66;;;18.01;100.00
21096;BME280;10706;49.036;12.112;2023-07-29T08:33:20;97327.22;;;18.14;100.00
21096;BME280;10706;49.036;12.112;2023-07-29T08:35:46;97318.91;;;18.10;100.00
21096;BME280;10706;49.036;12.112;2023-07-29T08:38:12;97310.97;;;18.33;100.00
21096;BME280;10706;49.036;12.112;2023-07-29T08:40:48;97305.22;;;18.20;100.00
21096;BME280;10706;49.036;12.112;2023-07-29T08:43:18;97296.53;;;18.37;100.00
21096;BME280;10706;49.036;12.112;2023-07-29T08:45:44;97301.78;;;18.15;100.00
21096;BME280;10706;49.036;12.112;2023-07-29T08:48:10;97283.56;;;18.06;100.00
21096;BME280;10706;49.036;12.112;2023-07-29T08:50:37;97299.63;;;17.98;100.00
21096;BME280;10706;49.036;12.112;2023-07-29T08:53:06;97310.88;;;17.86;100.00
21096;BME280;10706;49.036;12.112;2023-07-29T08:55:33;97305.00;;;17.79;100.00
21096;BME280;10706;49.036;12.112;2023-07-29T08:58:00;97264.38;;;17.89;100.00
21096;BME280;10706;49.036;12.112;2023-07-29T09:00:27;97285.09;;;17.94;100.00
21096;BME280;10706;49.036;12.112;2023-07-29T09:02:53;97282.41;;;17.94;100.00
21096;BME280;10706;49.036;12.112;2023-07-29T09:05:21;97277.91;;;18.22;100.00
21096;BME280;10706;49.036;12.112;2023-07-29T09:07:48;97268.91;;;18.26;100.00
21096;BME280;10706;49.036;12.112;2023-07-29T09:10:17;97281.81;;;18.30;100.00
21096;BME280;10706;49.036;12.112;2023-07-29T09:12:46;97286.38;;;18.48;100.00
21096;BME280;10706;49.036;12.112;2023-07-29T09:15:12;97294.47;;;18.48;100.00
21096;BME280;10706;49.036;12.112;2023-07-29T09:17:38;97284.44;;;18.81;100.00
21096;BME280;10706;49.036;12.112;2023-07-29T09:20:06;97271.22;;;19.08;100.00
21096;BME280;10706;49.036;12.112;2023-07-29T09:22:35;97262.88;;;19.32;100.00
21096;BME280;10706;49.036;12.112;2023-07-29T09:25:01;97268.81;;;19.56;100.00
21096;BME280;10706;49.036;12.112;2023-07-29T09:27:28;97265.63;;;19.91;100.00
21096;BME280;10706;49.036;12.112;2023-07-29T09:29:55;97264.72;;;19.95;100.00
21096;BME280;10706;49.036;12.112;2023-07-29T09:32:23;97263.53;;;20.10;99.49
21096;BME280;10706;49.036;12.112;2023-07-29T09:34:50;97271.28;;;19.80;99.19
21096;BME280;10706;49.036;12.112;2023-07-29T09:37:22;97269.13;;;19.55;98.82
21096;BME280;10706;49.036;12.112;2023-07-29T09:39:50;97274.03;;;19.53;100.00
21096;BME280;10706;49.036;12.112;2023-07-29T09:42:20;97268.34;;;19.40;98.63
21096;BME280;10706;49.036;12.112;2023-07-29T09:44:50;97279.59;;;19.20;98.89
21096;BME280;10706;49.036;12.112;2023-07-29T09:47:25;97281.53;;;19.33;92.65
21096;BME280;10706;49.036;12.112;2023-07-29T09:49:52;97281.25;;;19.57;94.17
21096;BME280;10706;49.036;12.112;2023-07-29T09:52:20;97278.97;;;19.87;92.89
21096;BME280;10706;49.036;12.112;2023-07-29T09:54:49;97274.19;;;20.07;93.16
21096;BME280;10706;49.036;12.112;2023-07-29T09:57:18;97271.38;;;20.43;91.69
21096;BME280;10706;49.036;12.112;2023-07-29T09:59:54;97279.66;;;21.09;90.87
21096;BME280;10706;49.036;12.112;2023-07-29T10:02:24;97279.25;;;20.76;88.52
21096;BME280;10706;49.036;12.112;2023-07-29T10:04:52;97298.63;;;20.15;88.01
21096;BME280;10706;49.036;12.112;2023-07-29T10:07:19;97310.06;;;19.53;90.58
21096;BME280;10706;49.036;12.112;2023-07-29T10:09:46;97312.09;;;19.34;93.54
21096;BME280;10706;49.036;12.112;2023-07-29T10:12:13;97317.13;;;19.13;95.90
21096;BME280;10706;49.036;12.112;2023-07-29T10:14:39;97326.94;;;19.09;98.41
21096;BME280;10706;49.036;12.112;2023-07-29T10:17:05;97312.25;;;18.68;100.00
21096;BME280;10706;49.036;12.112;2023-07-29T10:19:31;97310.81;;;18.57;100.00
21096;BME280;10706;49.036;12.112;2023-07-29T10:21:59;97297.38;;;18.52;100.00
21096;BME280;10706;49.036;12.112;2023-07-29T10:24:32;97291.19;;;18.51;100.00
21096;BME280;10706;49.036;12.112;2023-07-29T10:27:01;97294.47;;;18.34;100.00
21096;BME280;10706;49.036;12.112;2023-07-29T10:29:31;97294.19;;;18.50;100.00
21096;BME280;10706;49.036;12.112;2023-07-29T10:32:02;97299.59;;;18.50;100.00
21096;BME280;10706;49.036;12.112;2023-07-29T10:34:31;97299.38;;;18.46;100.00
21096;BME280;10706;49.036;12.112;2023-07-29T10:37:00;97300.69;;;18.49;100.00
21096;BME280;10706;49.036;12.112;2023-07-29T10:39:26;97300.09;;;18.65;100.00
21096;BME280;10706;49.036;12.112;2023-07-29T10:42:01;97300.38;;;18.83;100.00
21096;BME280;10706;49.036;12.112;2023-07-29T10:47:24;97306.44;;;19.44;100.00
21096;BME280;10706;49.036;12.112;2023-07-29T10:49:56;97295.81;;;19.61;100.00
21096;BME280;10706;49.036;12.112;2023-07-29T10:55:00;97259.84;;;20.60;98.45
21096;BME280;10706;49.036;12.112;2023-07-29T10:57:40;97266.00;;;20.83;96.04
21096;BME280;10706;49.036;12.112;2023-07-29T11:00:11;97273.97;;;20.48;93.67
21096;BME280;10706;49.036;12.112;2023-07-29T11:02:41;97271.19;;;20.62;93.54
21096;BME280;10706;49.036;12.112;2023-07-29T11:05:16;97271.91;;;20.85;95.75
21096;BME280;10706;49.036;12.112;2023-07-29T11:07:47;97269.44;;;21.06;94.70
21096;BME280;10706;49.036;12.112;2023-07-29T11:10:14;97271.31;;;21.63;92.81
21096;BME280;10706;49.036;12.112;2023-07-29T11:12:46;97270.19;;;22.25;90.38
21096;BME280;10706;49.036;12.112;2023-07-29T11:15:22;97272.63;;;21.83;90.52
21096;BME280;10706;49.036;12.112;2023-07-29T11:18:02;97266.19;;;22.14;89.00
21096;BME280;10706;49.036;12.112;2023-07-29T11:20:33;97260.28;;;21.60;85.85
21096;BME280;10706;49.036;12.112;2023-07-29T11:23:02;97264.94;;;21.77;88.37
21096;BME280;10706;49.036;12.112;2023-07-29T11:25:30;97270.50;;;21.98;88.31
21096;BME280;10706;49.036;12.112;2023-07-29T11:27:59;97269.69;;;22.41;86.69
21096;BME280;10706;49.036;12.112;2023-07-29T11:30:26;97269.22;;;22.21;84.18
21096;BME280;10706;49.036;12.112;2023-07-29T11:32:53;97264.28;;;21.88;85.92
21096;BME280;10706;49.036;12.112;2023-07-29T11:35:21;97266.69;;;21.90;85.06
21096;BME280;10706;49.036;12.112;2023-07-29T11:37:49;97261.81;;;22.48;82.46
21096;BME280;10706;49.036;12.112;2023-07-29T11:40:21;97263.84;;;22.68;80.82
21096;BME280;10706;49.036;12.112;2023-07-29T11:42:49;97255.69;;;22.60;83.15
21096;BME280;10706;49.036;12.112;2023-07-29T11:45:19;97261.91;;;22.69;82.15
21096;BME280;10706;49.036;12.112;2023-07-29T11:47:46;97251.38;;;22.67;82.96
21096;BME280;10706;49.036;12.112;2023-07-29T11:50:13;97255.56;;;22.95;80.07
21096;BME280;10706;49.036;12.112;2023-07-29T11:52:44;97256.47;;;23.37;83.32
21096;BME280;10706;49.036;12.112;2023-07-29T11:55:13;97258.78;;;23.47;76.75
21096;BME280;10706;49.036;12.112;2023-07-29T11:57:41;97254.22;;;23.39;78.40
21096;BME280;10706;49.036;12.112;2023-07-29T12:00:09;97258.56;;;23.02;78.46
21096;BME280;10706;49.036;12.112;2023-07-29T12:02:41;97249.59;;;23.82;78.60
21096;BME280;10706;49.036;12.112;2023-07-29T12:05:09;97243.97;;;23.57;76.60
21096;BME280;10706;49.036;12.112;2023-07-29T12:07:36;97234.38;;;23.72;77.33
21096;BME280;10706;49.036;12.112;2023-07-29T12:10:04;97233.69;;;23.12;73.91
21096;BME280;10706;49.036;12.112;2023-07-29T12:12:30;97220.63;;;22.97;75.29
21096;BME280;10706;49.036;12.112;2023-07-29T12:14:58;97224.34;;;22.92;78.28
21096;BME280;10706;49.036;12.112;2023-07-29T12:17:24;97223.47;;;23.09;77.38
21096;BME280;10706;49.036;12.112;2023-07-29T12:19:53;97213.84;;;23.33;77.22
21096;BME280;10706;49.036;12.112;2023-07-29T12:22:20;97226.28;;;23.21;77.54
21096;BME280;10706;49.036;12.112;2023-07-29T12:24:46;97224.16;;;23.27;75.45
21096;BME280;10706;49.036;12.112;2023-07-29T12:27:14;97221.84;;;23.80;73.97
21096;BME280;10706;49.036;12.112;2023-07-29T12:29:42;97216.13;;;23.31;73.35
21096;BME280;10706;49.036;12.112;2023-07-29T12:32:09;97225.31;;;23.47;73.61
21096;BME280;10706;49.036;12.112;2023-07-29T12:34:37;97224.63;;;24.25;70.02
21096;BME280;10706;49.036;12.112;2023-07-29T12:37:05;97222.78;;;24.63;68.16
21096;BME280;10706;49.036;12.112;2023-07-29T12:39:33;97220.41;;;26.64;64.95
21096;BME280;10706;49.036;12.112;2023-07-29T12:42:01;97217.66;;;27.86;61.24
21096;BME280;10706;49.036;12.112;2023-07-29T12:44:32;97212.66;;;27.18;55.55
21096;BME280;10706;49.036;12.112;2023-07-29T12:47:04;97210.66;;;26.99;58.33
21096;BME280;10706;49.036;12.112;2023-07-29T12:49:31;97205.09;;;25.22;63.15
21096;BME280;10706;49.036;12.112;2023-07-29T12:51:57;97196.25;;;25.66;61.97
21096;BME280;10706;49.036;12.112;2023-07-29T12:54:23;97201.81;;;25.16;63.35
21096;BME280;10706;49.036;12.112;2023-07-29T12:56:52;97192.56;;;24.22;63.97
21096;BME280;10706;49.036;12.112;2023-07-29T12:59:18;97194.97;;;24.36;64.85